logo
Rechercher aéroport 
image banner adimage banner adimage banner ad
image banner ad

SGYVYT - Yvytu

Situé à San Bernardino, Paraguay

ICAO - , IATA -

Données fournies par Airmate  

Information générale

Coordonnées: S25°21'19" W57°15'15"
Élévation : 274 feet MSL.
Variation magnétique : -15° East
Voir autres Aéroports à Central Department

Données opérationnelles

Special qualification required
Heure actuelle UTC:
Heure actuelle locale:
METAR: SGAS 151000Z 04009KT 9000 FEW033 BKN080 25/16 Q1010
TAF: TAF SGAS 151015Z 1512/1612 04008KT 9999 SCT033 TX31/1519Z TN20/1609Z BECMG 1516/1519 02012KT 9999 BKN027 PROB30 1522/1601 VRB05KT 8000 -RA BKN010 TEMPO 1604/1608 7000 TSRA BKN010 FEW040CB
Voir NOTAMs / SUP AIP / TFR affectant cet aéroport [VIEW]
Fréquences de communication: [VIEW]

Pistes:

Identifiant RWYQFULongueur (ft)Largeur (ft)SurfaceLDA (ft)
26245°2736101GRAS
0865°2736101GRAS

Coordonnées de l'aéroport

Adresse: San Bernardino Paraguay

Vue satellite de SGYVYT